Time;durP1;ratioP1;P1;durP2;ratioP2;P2;SDS_P1;SDS_P2;PMS_P1;PMS_P2;Temp;Humidity;BMP_temperature;BMP_pressure;BME280_temperature;BME280_humidity;BME280_pressure;Samples;Min_cycle;Max_cycle;Signal;HPM_P1;HPM_P2
2022/04/09 00:00:21;;;;;;;1.52;1.52;;;6.30;99.90;;;;;;5007982;28;20552;-72
2022/04/09 00:02:47;;;;;;;1.90;1.48;;;6.40;99.90;;;;;;5001749;28;20189;-71
2022/04/09 00:05:13;;;;;;;1.23;1.23;;;6.40;99.90;;;;;;5002233;28;20657;-70
2022/04/09 00:07:39;;;;;;;1.53;1.53;;;6.40;99.90;;;;;;5007858;28;20205;-71
2022/04/09 00:10:06;;;;;;;1.55;1.50;;;6.30;99.90;;;;;;5008047;28;20267;-71
2022/04/09 00:12:32;;;;;;;1.65;1.55;;;6.30;99.90;;;;;;5009951;28;20698;-71
2022/04/09 00:14:58;;;;;;;1.20;1.20;;;6.40;99.90;;;;;;5004182;28;20190;-71
2022/04/09 00:17:23;;;;;;;1.80;1.70;;;6.50;99.90;;;;;;5014096;28;20676;-71
2022/04/09 00:19:49;;;;;;;1.40;1.40;;;6.50;99.90;;;;;;5006024;28;20192;-71
2022/04/09 00:22:15;;;;;;;1.70;1.60;;;6.40;99.90;;;;;;5006192;28;20553;-71
2022/04/09 00:24:40;;;;;;;2.28;1.75;;;6.50;99.90;;;;;;5002025;28;20190;-71
2022/04/09 00:27:06;;;;;;;3.50;3.20;;;6.50;99.90;;;;;;5003740;28;20229;-71
2022/04/09 00:29:32;;;;;;;4.38;3.92;;;6.50;99.90;;;;;;5012454;28;20706;-71
2022/04/09 00:31:57;;;;;;;3.80;3.50;;;6.40;99.90;;;;;;5012431;28;20192;-71
2022/04/09 00:34:23;;;;;;;3.97;3.67;;;6.40;99.90;;;;;;5008436;28;20261;-71
2022/04/09 00:36:49;;;;;;;3.00;2.77;;;6.30;99.90;;;;;;5011899;28;20355;-72
2022/04/09 00:39:14;;;;;;;2.17;2.07;;;6.30;99.90;;;;;;5010148;28;20185;-72
2022/04/09 00:41:41;;;;;;;3.17;2.97;;;6.20;99.90;;;;;;5006018;28;20212;-72
2022/04/09 00:44:24;;;;;;;3.50;3.20;;;6.10;99.90;;;;;;5007975;28;20189;-72
2022/04/09 00:46:50;;;;;;;2.90;2.70;;;6.00;99.90;;;;;;5006390;28;20200;-72
2022/04/09 00:49:16;;;;;;;2.60;2.50;;;5.90;99.90;;;;;;5010176;28;20212;-72
2022/04/09 00:51:45;;;;;;;2.20;2.00;;;5.80;99.90;;;;;;5004831;28;20192;-72
2022/04/09 00:54:12;;;;;;;2.27;2.17;;;5.80;99.90;;;;;;5011859;28;20177;-71
2022/04/09 00:56:39;;;;;;;2.33;2.23;;;5.60;99.90;;;;;;5007456;28;20228;-71
2022/04/09 00:59:06;;;;;;;2.33;2.10;;;5.50;99.90;;;;;;5007520;28;20185;-69
2022/04/09 01:01:37;;;;;;;1.10;1.10;;;5.20;99.90;;;;;;5009187;28;20194;-69
2022/04/09 01:04:11;;;;;;;0.90;0.90;;;5.10;99.90;;;;;;5007713;28;20202;-69
2022/04/09 01:06:38;;;;;;;0.90;0.90;;;4.90;99.90;;;;;;5015243;28;20706;-68
2022/04/09 01:09:06;;;;;;;0.80;0.80;;;4.60;99.90;;;;;;5007319;28;20205;-71
2022/04/09 01:11:33;;;;;;;1.17;1.13;;;4.20;99.90;;;;;;5011062;28;20255;-68
2022/04/09 01:13:58;;;;;;;0.80;0.80;;;4.00;99.90;;;;;;5000401;28;20587;-71
2022/04/09 01:16:28;;;;;;;1.00;1.00;;;3.80;99.90;;;;;;5013502;28;20276;-70
2022/04/09 01:18:58;;;;;;;0.90;0.90;;;3.60;99.90;;;;;;5006718;28;20185;-70
2022/04/09 01:21:25;;;;;;;0.93;0.93;;;3.60;99.90;;;;;;5005497;28;20252;-71
2022/04/09 01:23:50;;;;;;;0.67;0.67;;;3.40;99.90;;;;;;5011854;28;20177;-70
2022/04/09 01:26:16;;;;;;;1.37;1.27;;;3.30;99.90;;;;;;5012337;28;20220;-71
2022/04/09 01:28:42;;;;;;;0.83;0.83;;;3.20;99.90;;;;;;5009030;28;20691;-71
2022/04/09 01:31:08;;;;;;;0.70;0.70;;;3.10;99.90;;;;;;5001662;28;20284;-71
2022/04/09 01:33:34;;;;;;;0.87;0.87;;;3.20;99.90;;;;;;5006250;28;20297;-71
2022/04/09 01:35:59;;;;;;;0.97;0.97;;;3.00;99.90;;;;;;5023303;28;20613;-70
2022/04/09 01:38:25;;;;;;;0.60;0.60;;;3.00;99.90;;;;;;5009167;28;20182;-70
2022/04/09 01:40:50;;;;;;;1.10;1.10;;;2.90;99.90;;;;;;5011012;28;20239;-71
2022/04/09 01:43:16;;;;;;;0.70;0.70;;;2.90;99.90;;;;;;5006710;28;20558;-71
2022/04/09 01:45:42;;;;;;;1.07;1.00;;;2.70;99.90;;;;;;5001478;28;20178;-71
2022/04/09 01:48:07;;;;;;;0.93;0.93;;;2.70;99.90;;;;;;5007807;28;20680;-71
2022/04/09 01:50:33;;;;;;;1.00;1.00;;;2.70;99.90;;;;;;5007101;28;20248;-69
2022/04/09 01:52:59;;;;;;;0.90;0.90;;;2.60;99.90;;;;;;5001717;28;20185;-71
2022/04/09 01:55:25;;;;;;;0.90;0.90;;;2.60;99.90;;;;;;5002512;28;20182;-69
2022/04/09 01:57:51;;;;;;;0.70;0.70;;;2.60;99.90;;;;;;5000835;28;20251;-70
2022/04/09 02:00:18;;;;;;;0.93;0.93;;;2.60;99.90;;;;;;5010770;28;20194;-71
2022/04/09 02:02:44;;;;;;;0.90;0.90;;;2.60;99.90;;;;;;5012397;28;20190;-70
2022/04/09 02:05:11;;;;;;;0.60;0.60;;;2.60;99.90;;;;;;4999649;28;20186;-70
2022/04/09 02:07:38;;;;;;;0.63;0.63;;;2.60;99.90;;;;;;5011644;28;20204;-71
2022/04/09 02:10:05;;;;;;;0.80;0.80;;;2.60;99.90;;;;;;5006617;28;20205;-69
2022/04/09 02:12:31;;;;;;;0.97;0.97;;;2.60;99.90;;;;;;5002634;28;20182;-70
2022/04/09 02:14:57;;;;;;;1.00;1.00;;;2.50;99.90;;;;;;5008081;28;20287;-70
2022/04/09 02:17:22;;;;;;;0.70;0.70;;;2.60;99.90;;;;;;5010881;28;20680;-70
2022/04/09 02:19:48;;;;;;;0.90;0.90;;;2.60;99.90;;;;;;5006235;28;20185;-70
2022/04/09 02:22:14;;;;;;;1.10;1.00;;;2.60;99.90;;;;;;4999910;28;20192;-71
2022/04/09 02:24:40;;;;;;;1.20;1.10;;;2.60;99.90;;;;;;5011734;28;20193;-71
2022/04/09 02:27:06;;;;;;;0.97;0.97;;;2.60;99.90;;;;;;5004397;28;20217;-71
2022/04/09 02:29:32;;;;;;;1.40;1.30;;;2.50;99.90;;;;;;5011508;28;20465;-71
2022/04/09 02:32:00;;;;;;;1.50;1.50;;;2.60;99.90;;;;;;5001849;28;20256;-71
2022/04/09 02:34:26;;;;;;;1.97;1.87;;;2.60;99.90;;;;;;5003141;28;20181;-71
2022/04/09 02:36:51;;;;;;;2.10;2.00;;;2.60;99.90;;;;;;5001083;28;20255;-71
2022/04/09 02:39:21;;;;;;;1.83;1.73;;;2.60;99.90;;;;;;5012114;28;20204;-71
2022/04/09 02:41:52;;;;;;;1.80;1.70;;;2.60;99.90;;;;;;5004678;28;20276;-70
2022/04/09 02:44:19;;;;;;;2.00;1.90;;;2.70;99.90;;;;;;4999335;28;20189;-71
2022/04/09 02:46:47;;;;;;;2.10;2.00;;;2.80;99.90;;;;;;5003587;28;20578;-71
2022/04/09 02:49:13;;;;;;;2.37;2.27;;;2.90;99.90;;;;;;5004581;28;20228;-70
2022/04/09 02:51:39;;;;;;;2.13;2.03;;;2.90;99.90;;;;;;5007313;28;20268;-70
2022/04/09 02:54:04;;;;;;;2.53;2.43;;;2.80;99.90;;;;;;5008989;28;20336;-71
2022/04/09 02:56:30;;;;;;;2.13;2.03;;;2.90;99.90;;;;;;5010858;28;20721;-71
2022/04/09 02:58:56;;;;;;;2.43;2.33;;;2.90;99.90;;;;;;5005224;28;20189;-71
2022/04/09 03:01:24;;;;;;;2.50;2.30;;;2.80;99.90;;;;;;5002152;28;20186;-71
2022/04/09 03:03:50;;;;;;;2.40;2.30;;;2.90;99.90;;;;;;5007619;28;20200;-70
2022/04/09 03:06:16;;;;;;;2.60;2.50;;;2.80;99.90;;;;;;4999421;28;20209;-70
2022/04/09 03:08:42;;;;;;;2.10;2.00;;;2.80;99.90;;;;;;5007765;28;20201;-71
2022/04/09 03:11:08;;;;;;;2.63;2.50;;;2.90;99.90;;;;;;5002746;28;20205;-70
2022/04/09 03:13:34;;;;;;;2.80;2.60;;;3.00;99.90;;;;;;5008822;28;20192;-71
2022/04/09 03:16:00;;;;;;;2.60;2.40;;;2.90;99.90;;;;;;5001331;28;20177;-71
2022/04/09 03:18:25;;;;;;;3.13;2.93;;;3.00;99.90;;;;;;5012166;28;20196;-70
2022/04/09 03:20:51;;;;;;;3.43;3.20;;;3.00;99.90;;;;;;5003732;28;20181;-70
2022/04/09 03:23:17;;;;;;;2.40;2.20;;;3.00;99.90;;;;;;5005972;28;20173;-71
2022/04/09 03:25:42;;;;;;;2.53;2.43;;;3.00;99.90;;;;;;4997193;28;20189;-70
2022/04/09 03:28:08;;;;;;;2.60;2.40;;;2.90;99.90;;;;;;5005344;28;20214;-70
2022/04/09 03:30:33;;;;;;;2.43;2.33;;;2.90;99.90;;;;;;5004811;28;20217;-71
2022/04/09 03:32:59;;;;;;;2.80;2.70;;;3.00;99.90;;;;;;5005650;28;20196;-70
2022/04/09 03:35:25;;;;;;;1.90;1.80;;;3.00;99.90;;;;;;5013550;28;20181;-70
2022/04/09 03:37:51;;;;;;;3.13;2.33;;;3.00;99.90;;;;;;5010684;28;20205;-70
2022/04/09 03:40:16;;;;;;;2.30;2.20;;;3.10;99.90;;;;;;5007829;28;20201;-71
2022/04/09 03:42:42;;;;;;;2.80;2.67;;;3.10;99.90;;;;;;5005788;28;20339;-71
2022/04/09 03:45:08;;;;;;;4.33;2.97;;;3.10;99.90;;;;;;5004485;28;20232;-71
2022/04/09 03:47:35;;;;;;;3.10;2.90;;;3.10;99.90;;;;;;5005981;28;20258;-71
2022/04/09 03:50:06;;;;;;;3.10;2.87;;;3.00;99.90;;;;;;5010116;28;20213;-70
2022/04/09 03:52:32;;;;;;;2.70;2.50;;;3.00;99.90;;;;;;5003724;28;20193;-71
2022/04/09 03:54:57;;;;;;;3.20;2.97;;;3.10;99.90;;;;;;5003428;28;20551;-71
2022/04/09 03:57:23;;;;;;;2.57;2.37;;;3.10;99.90;;;;;;5008534;28;20696;-71
2022/04/09 03:59:51;;;;;;;5.80;3.20;;;3.10;99.90;;;;;;5012108;28;20192;-70
2022/04/09 04:02:17;;;;;;;2.87;2.67;;;3.10;99.90;;;;;;5005660;28;20572;-70
2022/04/09 04:04:43;;;;;;;3.30;3.10;;;3.10;99.90;;;;;;5003926;28;20190;-70
2022/04/09 04:07:08;;;;;;;2.83;2.63;;;3.00;99.90;;;;;;5012926;28;20228;-71
2022/04/09 04:09:34;;;;;;;1.37;1.33;;;3.10;99.90;;;;;;5004223;28;20676;-71
2022/04/09 04:12:00;;;;;;;2.77;2.63;;;3.20;99.90;;;;;;5007875;28;20185;-71
2022/04/09 04:14:28;;;;;;;2.70;2.37;;;3.20;99.90;;;;;;5011785;28;20181;-71
2022/04/09 04:16:54;;;;;;;3.20;3.00;;;3.20;99.90;;;;;;5009538;28;20193;-71
2022/04/09 04:19:19;;;;;;;3.70;3.27;;;3.20;99.90;;;;;;5010988;28;20271;-70
2022/04/09 04:21:45;;;;;;;3.13;2.83;;;3.10;99.90;;;;;;5011214;28;20189;-70
2022/04/09 04:24:10;;;;;;;4.13;3.83;;;3.10;99.90;;;;;;5016298;28;20256;-71
2022/04/09 04:26:36;;;;;;;3.37;3.17;;;3.10;99.90;;;;;;5010740;28;20235;-71
2022/04/09 04:29:02;;;;;;;3.83;3.63;;;3.00;99.90;;;;;;5007158;28;20275;-70
2022/04/09 04:31:28;;;;;;;4.20;3.90;;;3.00;99.90;;;;;;5011284;28;20236;-70
2022/04/09 04:33:53;;;;;;;4.20;3.90;;;3.00;99.90;;;;;;5015514;28;20217;-71
2022/04/09 04:36:19;;;;;;;4.70;4.40;;;2.90;99.90;;;;;;5014345;28;20209;-71
2022/04/09 04:38:46;;;;;;;4.97;4.57;;;2.90;99.90;;;;;;5009518;28;20178;-70
2022/04/09 04:41:12;;;;;;;6.00;4.97;;;2.90;99.90;;;;;;5009752;28;20605;-71
2022/04/09 04:43:37;;;;;;;6.30;5.80;;;2.90;99.90;;;;;;5014012;28;20216;-71
2022/04/09 04:46:03;;;;;;;6.37;5.77;;;2.80;99.90;;;;;;5011984;28;20182;-71
2022/04/09 04:48:29;;;;;;;7.23;6.53;;;2.80;99.90;;;;;;5009179;28;20174;-71
2022/04/09 04:50:55;;;;;;;7.30;6.60;;;2.70;99.90;;;;;;5008224;28;20613;-71
2022/04/09 04:53:21;;;;;;;6.27;5.57;;;2.70;99.90;;;;;;5014635;28;20212;-70
2022/04/09 04:55:46;;;;;;;7.23;6.60;;;2.70;99.90;;;;;;5010823;28;20174;-70
2022/04/09 04:58:12;;;;;;;5.87;5.27;;;2.60;99.90;;;;;;5008903;28;20281;-71
2022/04/09 05:00:38;;;;;;;11.13;7.93;;;2.70;99.90;;;;;;5014142;28;20189;-71
2022/04/09 05:03:04;;;;;;;9.83;6.77;;;2.80;99.90;;;;;;5012059;28;20186;-71
2022/04/09 05:05:30;;;;;;;7.33;6.63;;;2.90;99.90;;;;;;5009041;28;20710;-71
2022/04/09 05:07:55;;;;;;;9.63;7.47;;;3.00;99.90;;;;;;5010805;28;20210;-71
2022/04/09 05:10:25;;;;;;;10.83;8.40;;;3.10;99.90;;;;;;5012496;28;20209;-71
2022/04/09 05:12:54;;;;;;;8.83;6.97;;;3.10;99.90;;;;;;5008998;28;20177;-70
2022/04/09 05:15:20;;;;;;;8.93;8.13;;;3.10;99.90;;;;;;5005042;28;20185;-70
2022/04/09 05:17:46;;;;;;;7.87;7.03;;;3.20;99.90;;;;;;5011425;28;20328;-70
2022/04/09 05:20:15;;;;;;;10.40;8.63;;;3.30;99.90;;;;;;5011502;28;20271;-71
2022/04/09 05:22:46;;;;;;;9.30;8.40;;;3.40;99.90;;;;;;5009665;28;20577;-71
2022/04/09 05:25:13;;;;;;;10.90;9.63;;;3.40;99.90;;;;;;5018673;28;20189;-70
2022/04/09 05:27:40;;;;;;;10.70;9.70;;;3.50;99.90;;;;;;5007815;28;20231;-72
2022/04/09 05:30:06;;;;;;;9.53;8.63;;;3.50;99.90;;;;;;5005729;28;20209;-71
2022/04/09 05:32:32;;;;;;;9.03;8.23;;;3.50;99.90;;;;;;5008585;28;20192;-71
2022/04/09 05:34:57;;;;;;;9.07;7.97;;;3.50;99.90;;;;;;5004193;28;20190;-71
2022/04/09 05:37:23;;;;;;;8.00;7.20;;;3.60;99.90;;;;;;5008906;28;20233;-71
2022/04/09 05:39:49;;;;;;;8.80;7.30;;;3.70;99.90;;;;;;5006339;28;20181;-72
2022/04/09 05:42:14;;;;;;;11.33;9.53;;;3.70;99.90;;;;;;5011596;28;20198;-72
2022/04/09 05:44:40;;;;;;;9.20;7.83;;;3.70;99.90;;;;;;5009481;28;20185;-72
2022/04/09 05:47:06;;;;;;;10.37;9.27;;;3.70;99.90;;;;;;5007794;28;20252;-73
2022/04/09 05:49:32;;;;;;;10.40;9.30;;;3.70;99.90;;;;;;5009390;28;20296;-72
2022/04/09 05:51:58;;;;;;;9.87;8.50;;;3.70;99.90;;;;;;5007785;28;20193;-73
2022/04/09 05:54:24;;;;;;;8.80;7.90;;;3.70;99.90;;;;;;5013046;28;20173;-73
2022/04/09 05:56:50;;;;;;;11.70;8.40;;;3.80;99.90;;;;;;4998104;28;20210;-71
2022/04/09 05:59:16;;;;;;;12.60;8.47;;;3.80;99.90;;;;;;5002258;28;20619;-72
2022/04/09 06:01:42;;;;;;;9.50;8.50;;;3.90;99.90;;;;;;5011067;28;20451;-72
2022/04/09 06:04:07;;;;;;;8.83;8.07;;;3.80;99.90;;;;;;5012694;28;20221;-72
2022/04/09 06:06:33;;;;;;;12.13;8.57;;;3.70;99.90;;;;;;5011153;28;20205;-72
2022/04/09 06:08:59;;;;;;;9.30;8.13;;;3.80;99.90;;;;;;5003130;28;20256;-72
2022/04/09 06:11:24;;;;;;;9.23;8.33;;;3.80;99.90;;;;;;5009160;28;20188;-70
2022/04/09 06:13:50;;;;;;;8.40;7.70;;;3.70;99.90;;;;;;5008621;28;20246;-72
2022/04/09 06:16:16;;;;;;;9.03;7.67;;;3.80;99.90;;;;;;5007703;28;20224;-71
2022/04/09 06:18:43;;;;;;;7.50;6.80;;;3.70;99.90;;;;;;5001472;28;20185;-73
2022/04/09 06:21:09;;;;;;;6.63;5.80;;;3.80;99.90;;;;;;5007808;28;20644;-72
2022/04/09 06:23:36;;;;;;;7.20;6.60;;;3.90;99.90;;;;;;5009150;28;20601;-72
2022/04/09 06:26:02;;;;;;;7.10;6.40;;;4.10;99.90;;;;;;5009245;28;20563;-73
2022/04/09 06:28:28;;;;;;;7.20;6.50;;;4.30;99.90;;;;;;5010837;28;20183;-72
2022/04/09 06:30:53;;;;;;;7.80;7.10;;;4.50;99.90;;;;;;5011965;28;20220;-72
2022/04/09 06:33:20;;;;;;;7.60;6.80;;;4.70;99.90;;;;;;5009964;28;20189;-69
2022/04/09 06:35:47;;;;;;;7.17;6.57;;;4.90;99.90;;;;;;5009480;28;20205;-73
2022/04/09 06:38:14;;;;;;;7.93;6.40;;;5.10;99.90;;;;;;5008358;28;20181;-69
2022/04/09 06:40:39;;;;;;;6.43;5.87;;;5.30;99.90;;;;;;5004488;28;20185;-69
2022/04/09 06:43:05;;;;;;;7.47;5.97;;;5.40;99.90;;;;;;5002539;28;20649;-72
2022/04/09 06:45:31;;;;;;;4.07;3.80;;;5.50;99.90;;;;;;5010373;28;20192;-73
2022/04/09 06:47:56;;;;;;;5.77;4.90;;;5.40;99.90;;;;;;5006399;28;20680;-74
2022/04/09 06:50:22;;;;;;;6.23;5.63;;;5.30;99.90;;;;;;5005797;28;20213;-73
2022/04/09 06:52:48;;;;;;;6.10;5.00;;;5.10;99.90;;;;;;5008996;28;20191;-72
2022/04/09 06:55:13;;;;;;;5.00;4.70;;;5.00;99.90;;;;;;5007481;28;20268;-74
2022/04/09 06:57:41;;;;;;;6.03;5.43;;;4.90;99.90;;;;;;5011240;28;20569;-74
2022/04/09 07:00:11;;;;;;;6.63;5.50;;;5.20;99.90;;;;;;5006449;28;20188;-74
2022/04/09 07:02:38;;;;;;;5.53;5.03;;;5.40;99.90;;;;;;5013192;28;20196;-74
2022/04/09 07:05:04;;;;;;;4.90;4.50;;;5.60;99.90;;;;;;5008910;28;20731;-74
2022/04/09 07:07:30;;;;;;;7.73;5.00;;;5.70;99.90;;;;;;5010667;28;20243;-72
2022/04/09 07:10:06;;;;;;;5.33;4.63;;;5.90;99.90;;;;;;5010695;28;20247;-73
2022/04/09 07:12:31;;;;;;;5.13;4.37;;;6.00;99.90;;;;;;5010273;28;20690;-73
2022/04/09 07:14:58;;;;;;;5.23;4.50;;;6.30;99.90;;;;;;5009191;28;20276;-71
2022/04/09 07:17:26;;;;;;;5.90;4.23;;;6.30;99.90;;;;;;5005230;28;20288;-72
2022/04/09 07:20:03;;;;;;;7.27;4.67;;;6.20;99.90;;;;;;5013455;28;20653;-72
2022/04/09 07:22:29;;;;;;;4.13;3.83;;;6.10;99.90;;;;;;5027636;28;20200;-73
2022/04/09 07:24:55;;;;;;;5.73;5.23;;;5.90;99.90;;;;;;5014536;28;20632;-72
2022/04/09 07:27:21;;;;;;;7.67;5.17;;;5.70;99.90;;;;;;5005028;28;20224;-70
2022/04/09 07:29:47;;;;;;;10.57;5.47;;;5.50;99.90;;;;;;5007414;28;20743;-73
2022/04/09 07:32:13;;;;;;;5.37;4.83;;;5.50;99.90;;;;;;5013632;28;20265;-72
2022/04/09 07:34:38;;;;;;;6.93;5.27;;;5.40;99.90;;;;;;5014274;28;20197;-73
2022/04/09 07:37:04;;;;;;;5.80;5.27;;;5.40;99.90;;;;;;5012908;28;20335;-71
2022/04/09 07:39:30;;;;;;;5.87;4.20;;;5.50;99.90;;;;;;5006465;28;20231;-73
2022/04/09 07:41:56;;;;;;;6.23;5.73;;;5.50;99.90;;;;;;5007184;28;20619;-73
2022/04/09 07:44:22;;;;;;;3.80;3.50;;;5.50;99.90;;;;;;5008098;28;20216;-71
2022/04/09 07:46:48;;;;;;;5.43;4.93;;;5.80;99.90;;;;;;5014867;28;20197;-71
2022/04/09 07:49:14;;;;;;;4.87;4.53;;;6.00;99.90;;;;;;5009349;28;20201;-77
2022/04/09 07:51:40;;;;;;;6.40;4.90;;;6.10;99.90;;;;;;5011401;28;20239;-75
2022/04/09 07:54:06;;;;;;;5.10;3.80;;;6.30;99.90;;;;;;5011895;28;20189;-76
2022/04/09 07:56:32;;;;;;;2.70;2.50;;;6.70;99.90;;;;;;5012148;28;20204;-76
2022/04/09 07:58:58;;;;;;;9.07;3.97;;;7.00;99.90;;;;;;5011396;28;20209;-75
2022/04/09 08:01:23;;;;;;;4.30;3.90;;;7.20;99.90;;;;;;5009050;28;20699;-75
2022/04/09 08:03:49;;;;;;;4.67;3.50;;;7.40;99.90;;;;;;5011908;28;20722;-75
2022/04/09 08:06:16;;;;;;;3.43;3.00;;;7.50;99.90;;;;;;5009859;28;20224;-76
2022/04/09 08:08:41;;;;;;;7.40;3.53;;;7.60;99.90;;;;;;5008839;28;20448;-76
2022/04/09 08:11:08;;;;;;;7.20;3.37;;;7.60;99.90;;;;;;5007972;28;20690;-75
2022/04/09 08:13:34;;;;;;;3.20;2.90;;;7.60;99.90;;;;;;5007671;28;20185;-75
2022/04/09 08:15:59;;;;;;;3.70;3.40;;;7.40;99.90;;;;;;5009851;28;20208;-74
2022/04/09 08:18:25;;;;;;;5.05;3.60;;;7.50;99.90;;;;;;5008140;28;20182;-74
2022/04/09 08:20:51;;;;;;;5.65;3.22;;;7.60;99.90;;;;;;5009582;28;20259;-74
2022/04/09 08:23:17;;;;;;;5.40;3.20;;;7.50;99.90;;;;;;5011215;28;20189;-74
2022/04/09 08:25:43;;;;;;;3.47;3.17;;;7.50;99.90;;;;;;5011011;28;20231;-74
2022/04/09 08:28:08;;;;;;;2.72;2.53;;;7.40;99.90;;;;;;5011395;28;20676;-74
2022/04/09 08:30:35;;;;;;;4.15;3.30;;;7.40;99.90;;;;;;5010839;28;20212;-74
2022/04/09 08:33:05;;;;;;;3.60;3.30;;;7.40;99.90;;;;;;5008459;28;20193;-74
2022/04/09 08:35:31;;;;;;;4.17;2.90;;;7.30;99.90;;;;;;5013501;28;20786;-73
2022/04/09 08:37:57;;;;;;;5.97;3.47;;;7.40;99.90;;;;;;5011794;28;20280;-74
2022/04/09 08:40:24;;;;;;;7.05;3.72;;;7.30;99.90;;;;;;5011567;28;20324;-74
2022/04/09 08:42:49;;;;;;;6.75;3.53;;;7.40;99.90;;;;;;5011068;28;20267;-74
2022/04/09 08:45:16;;;;;;;3.17;2.90;;;7.40;99.90;;;;;;5014941;28;20666;-75
2022/04/09 08:47:43;;;;;;;3.67;3.38;;;7.40;99.90;;;;;;5012964;28;20570;-75
2022/04/09 08:50:11;;;;;;;3.45;3.22;;;7.30;99.90;;;;;;5007342;28;20209;-73
2022/04/09 08:52:41;;;;;;;3.33;3.08;;;7.50;99.90;;;;;;5005711;28;20193;-75
2022/04/09 08:55:09;;;;;;;5.53;3.35;;;7.80;99.90;;;;;;5005716;28;20332;-73
2022/04/09 08:57:35;;;;;;;4.30;3.17;;;7.80;99.90;;;;;;5014779;28;20199;-74
2022/04/09 09:00:10;;;;;;;3.80;3.42;;;7.80;99.90;;;;;;5012263;28;20277;-76
2022/04/09 09:02:36;;;;;;;3.40;3.15;;;7.80;99.90;;;;;;5011772;28;20628;-75
2022/04/09 09:05:03;;;;;;;3.63;3.33;;;7.70;99.90;;;;;;5011009;28;20196;-76
2022/04/09 09:07:29;;;;;;;4.07;3.78;;;7.90;99.90;;;;;;5011745;28;20607;-76
2022/04/09 09:10:13;;;;;;;6.03;3.92;;;8.00;99.90;;;;;;5008304;28;20209;-72
2022/04/09 09:12:39;;;;;;;4.97;3.42;;;8.00;99.90;;;;;;5010276;28;20269;-73
2022/04/09 09:15:05;;;;;;;4.05;3.67;;;8.00;99.90;;;;;;5009397;28;20194;-72
2022/04/09 09:17:31;;;;;;;3.20;2.90;;;8.20;99.90;;;;;;5009201;28;20192;-76
2022/04/09 09:19:58;;;;;;;3.15;2.85;;;8.50;99.90;;;;;;5012020;28;20268;-76
2022/04/09 09:22:37;;;;;;;3.28;2.97;;;8.70;99.90;;;;;;5007015;28;20219;-75
2022/04/09 09:25:03;;;;;;;5.10;3.15;;;9.00;99.90;;;;;;5012290;28;20181;-74
2022/04/09 09:27:29;;;;;;;3.95;3.60;;;9.20;99.90;;;;;;5001589;28;20213;-73
2022/04/09 09:29:55;;;;;;;3.20;2.90;;;9.00;99.90;;;;;;5006190;28;22033;-74
2022/04/09 09:32:26;;;;;;;3.05;2.85;;;8.70;99.90;;;;;;5026816;28;20233;-73
2022/04/09 09:34:56;;;;;;;4.88;4.10;;;8.20;99.90;;;;;;5004599;28;20181;-74
2022/04/09 09:37:24;;;;;;;4.10;3.80;;;7.90;99.90;;;;;;5010218;28;20266;-74
2022/04/09 09:39:50;;;;;;;4.15;3.85;;;7.70;99.90;;;;;;5012373;28;20185;-73
2022/04/09 09:42:23;;;;;;;3.85;3.50;;;7.70;99.90;;;;;;5005775;28;20217;-74
2022/04/09 09:44:50;;;;;;;3.30;2.38;;;7.70;99.90;;;;;;5003596;28;20185;-74
2022/04/09 09:47:16;;;;;;;5.63;3.28;;;7.70;99.90;;;;;;4998971;28;20688;-73
2022/04/09 09:49:47;;;;;;;6.57;3.22;;;7.50;99.90;;;;;;5005764;28;20224;-73
2022/04/09 09:52:13;;;;;;;5.93;1.90;;;7.40;99.90;;;;;;5023165;28;20185;-72
2022/04/09 09:54:57;;;;;;;3.75;3.10;;;7.40;99.90;;;;;;5012455;28;20185;-74
2022/04/09 09:57:26;;;;;;;5.32;2.92;;;7.50;99.90;;;;;;5014117;28;20200;-72
2022/04/09 09:59:53;;;;;;;5.00;2.83;;;7.60;99.90;;;;;;5011382;28;20243;-72
2022/04/09 10:02:24;;;;;;;3.10;2.80;;;7.50;99.90;;;;;;5010437;28;20189;-72
2022/04/09 10:04:51;;;;;;;3.72;3.20;;;7.40;99.90;;;;;;5007044;28;20224;-74
2022/04/09 10:07:18;;;;;;;2.97;2.75;;;7.30;99.90;;;;;;5009763;28;20711;-74
2022/04/09 10:09:45;;;;;;;4.47;3.33;;;7.40;99.90;;;;;;5006575;28;20398;-74
2022/04/09 10:12:20;;;;;;;3.58;3.28;;;7.20;99.90;;;;;;5003008;28;20545;-75
2022/04/09 10:14:48;;;;;;;3.65;3.33;;;7.10;99.90;;;;;;5001523;28;20173;-75
2022/04/09 10:17:18;;;;;;;3.50;3.20;;;7.00;99.90;;;;;;5010494;28;20204;-75
2022/04/09 10:19:44;;;;;;;3.20;2.92;;;7.10;99.90;;;;;;5009563;28;20192;-74
2022/04/09 10:22:12;;;;;;;5.60;2.08;;;7.10;99.90;;;;;;5002910;28;20185;-74
2022/04/09 10:24:39;;;;;;;3.72;2.70;;;7.30;99.90;;;;;;5013211;28;20189;-74
2022/04/09 10:27:07;;;;;;;2.78;1.83;;;7.30;99.90;;;;;;4999084;28;20217;-74
2022/04/09 10:29:49;;;;;;;7.00;2.22;;;7.30;99.90;;;;;;5004595;28;20212;-74
2022/04/09 10:32:44;;;;;;;3.08;2.20;;;7.40;99.90;;;;;;4996690;28;20209;-75
2022/04/09 10:35:30;;;;;;;3.60;2.83;;;7.40;99.90;;;;;;5001049;28;20169;-75
2022/04/09 10:38:14;;;;;;;2.42;2.33;;;7.40;99.90;;;;;;5009964;28;20200;-73
2022/04/09 10:40:42;;;;;;;2.67;2.22;;;7.30;99.90;;;;;;5009742;28;20236;-73
2022/04/09 10:43:30;;;;;;;5.50;2.70;;;7.60;99.90;;;;;;5005297;28;20186;-72
2022/04/09 10:46:09;;;;;;;2.80;2.60;;;7.80;99.90;;;;;;5013070;28;20227;-72
2022/04/09 10:48:35;;;;;;;2.47;2.25;;;8.10;99.90;;;;;;5027853;28;20235;-72
2022/04/09 10:51:06;;;;;;;1.90;1.80;;;8.80;99.90;;;;;;5007631;28;20201;-72
2022/04/09 10:53:37;;;;;;;4.57;2.47;;;9.80;99.90;;;;;;5001791;28;21081;-73
2022/04/09 10:56:24;;;;;;;5.22;2.38;;;10.10;99.90;;;;;;5005674;28;20189;-72
2022/04/09 10:59:09;;;;;;;3.20;2.65;;;10.30;99.90;;;;;;5001121;28;20672;-73
2022/04/09 11:01:46;;;;;;;3.55;2.58;;;10.00;99.90;;;;;;5010450;28;20665;-72
2022/04/09 11:04:36;;;;;;;4.28;2.13;;;9.50;99.90;;;;;;5009275;28;20543;-72
2022/04/09 11:07:05;;;;;;;2.80;2.60;;;9.00;99.90;;;;;;4994972;28;20313;-73
2022/04/09 11:09:58;;;;;;;2.42;2.22;;;8.80;99.90;;;;;;5004563;28;20539;-73
2022/04/09 11:12:28;;;;;;;3.88;2.03;;;9.40;99.90;;;;;;5007128;28;20180;-72
2022/04/09 11:14:58;;;;;;;2.50;2.17;;;9.80;99.90;;;;;;5010421;28;20181;-72
2022/04/09 11:17:26;;;;;;;2.97;2.55;;;9.90;99.90;;;;;;5006659;28;20225;-73
2022/04/09 11:19:52;;;;;;;1.80;1.70;;;9.70;99.90;;;;;;5009477;28;20200;-73
2022/04/09 11:22:18;;;;;;;3.47;1.85;;;10.00;99.90;;;;;;5009354;28;20198;-73
2022/04/09 11:24:44;;;;;;;3.08;2.05;;;10.10;99.90;;;;;;5006849;28;20200;-72
2022/04/09 11:27:10;;;;;;;2.92;2.05;;;10.20;99.90;;;;;;5004403;28;20217;-73
2022/04/09 11:29:39;;;;;;;2.38;2.10;;;10.20;99.90;;;;;;5001926;28;20228;-72
2022/04/09 11:32:06;;;;;;;2.67;2.10;;;10.00;99.90;;;;;;5006785;28;20183;-72
2022/04/09 11:34:57;;;;;;;5.50;2.08;;;10.10;99.90;;;;;;5009633;28;20276;-73
2022/04/09 11:37:29;;;;;;;1.92;1.73;;;11.50;99.90;;;;;;5000604;28;20237;-72
2022/04/09 11:39:57;;;;;;;2.90;2.50;;;14.10;99.90;;;;;;5010671;28;20181;-73
2022/04/09 11:42:22;;;;;;;3.88;1.92;;;16.20;93.80;;;;;;5005766;28;20189;-75
2022/04/09 11:44:48;;;;;;;1.75;1.65;;;16.20;81.60;;;;;;5004467;28;20669;-75
2022/04/09 11:47:16;;;;;;;3.90;2.60;;;15.30;80.70;;;;;;5001935;28;20696;-74
2022/04/09 11:49:43;;;;;;;4.22;1.70;;;13.90;86.30;;;;;;5007149;28;20197;-75
2022/04/09 11:52:10;;;;;;;3.65;1.90;;;12.60;88.20;;;;;;4998243;28;20217;-75
2022/04/09 11:54:38;;;;;;;2.30;1.60;;;11.80;90.50;;;;;;5015367;28;20180;-76
2022/04/09 11:57:09;;;;;;;2.10;1.33;;;11.50;90.60;;;;;;5008452;28;20677;-74
2022/04/09 11:59:36;;;;;;;1.75;1.65;;;11.40;88.90;;;;;;5012920;28;20557;-75
2022/04/09 12:02:02;;;;;;;3.03;2.17;;;11.10;90.40;;;;;;5009708;28;20184;-75
2022/04/09 12:04:35;;;;;;;1.63;1.50;;;11.20;91.30;;;;;;5015061;28;20182;-75
2022/04/09 12:07:04;;;;;;;2.15;1.50;;;11.60;90.80;;;;;;5008362;28;20254;-74
2022/04/09 12:09:30;;;;;;;1.60;1.40;;;11.80;91.40;;;;;;5011085;28;20208;-74
2022/04/09 12:12:02;;;;;;;2.05;1.58;;;12.70;90.20;;;;;;5003801;28;20185;-75
2022/04/09 12:14:27;;;;;;;1.50;1.23;;;13.50;81.50;;;;;;5013099;28;20184;-75
2022/04/09 12:16:54;;;;;;;5.40;1.30;;;13.60;80.50;;;;;;5007769;28;20198;-75
2022/04/09 12:19:31;;;;;;;2.58;1.88;;;14.00;80.40;;;;;;5006990;28;20184;-73
2022/04/09 12:22:14;;;;;;;2.17;1.30;;;13.30;77.30;;;;;;5010013;28;20177;-73
2022/04/09 12:24:56;;;;;;;2.97;1.65;;;12.90;81.00;;;;;;5019174;28;20614;-75
2022/04/09 12:27:43;;;;;;;1.02;1.02;;;14.50;82.70;;;;;;5010281;28;20245;-75
2022/04/09 12:30:10;;;;;;;1.45;1.35;;;16.40;71.40;;;;;;5013912;28;20666;-75
2022/04/09 12:32:36;;;;;;;1.27;1.17;;;16.40;67.60;;;;;;5011918;28;20186;-76
2022/04/09 12:35:10;;;;;;;1.50;1.35;;;15.60;66.70;;;;;;5002795;28;20895;-76
2022/04/09 12:38:02;;;;;;;1.40;1.30;;;14.30;69.30;;;;;;5006968;28;20225;-76
2022/04/09 12:40:29;;;;;;;1.50;1.40;;;13.80;73.40;;;;;;5014843;28;20277;-76
2022/04/09 12:42:55;;;;;;;1.45;1.35;;;14.60;70.40;;;;;;5012083;28;20276;-77
2022/04/09 12:45:22;;;;;;;2.25;1.70;;;15.30;71.20;;;;;;5010397;28;20273;-76
2022/04/09 12:48:01;;;;;;;1.40;1.30;;;16.20;67.50;;;;;;5013167;28;20308;-76
2022/04/09 12:50:34;;;;;;;1.30;1.23;;;16.60;63.20;;;;;;5012342;28;20548;-76
2022/04/09 12:53:02;;;;;;;1.88;1.33;;;16.00;66.20;;;;;;5011877;28;20185;-76
2022/04/09 12:55:30;;;;;;;1.40;1.30;;;14.80;69.10;;;;;;5011993;28;20186;-76
2022/04/09 12:57:56;;;;;;;1.95;1.50;;;13.90;70.60;;;;;;5012211;28;20280;-76